createdAt,value
2018-08-30T00:00:51.791Z,4.80
2018-08-30T00:01:51.791Z,4.40
2018-08-30T00:02:51.791Z,3.70
2018-08-30T00:03:51.791Z,4.00
2018-08-30T00:04:51.790Z,3.60
2018-08-30T00:05:51.789Z,4.10
2018-08-30T00:06:51.789Z,3.70
2018-08-30T00:07:51.790Z,4.40
2018-08-30T00:08:51.790Z,3.60
2018-08-30T00:09:51.788Z,4.70
2018-08-30T00:10:51.789Z,4.70
2018-08-30T00:11:51.790Z,4.10
2018-08-30T00:12:51.789Z,4.30
2018-08-30T00:13:51.786Z,4.40
2018-08-30T00:14:51.789Z,4.10
2018-08-30T00:15:51.787Z,4.00
2018-08-30T00:16:51.787Z,4.70
2018-08-30T00:17:51.788Z,4.90
2018-08-30T00:18:51.784Z,4.50
2018-08-30T00:19:51.784Z,5.00
2018-08-30T00:20:51.785Z,4.70
2018-08-30T00:21:51.783Z,4.80
2018-08-30T00:22:51.783Z,4.40
2018-08-30T00:23:51.781Z,4.70
2018-08-30T00:24:51.781Z,5.50
2018-08-30T00:25:51.781Z,4.50
2018-08-30T00:26:51.783Z,5.70
2018-08-30T00:27:51.780Z,5.70
2018-08-30T00:28:51.780Z,4.80
2018-08-30T00:29:51.779Z,5.40
2018-08-30T00:30:51.780Z,5.40
2018-08-30T00:31:51.779Z,5.20
2018-08-30T00:32:51.778Z,5.50
2018-08-30T00:33:51.778Z,4.70
2018-08-30T00:34:51.775Z,5.30
2018-08-30T00:35:51.774Z,4.90
2018-08-30T00:36:51.778Z,5.60
2018-08-30T00:37:51.774Z,5.20
2018-08-30T00:38:51.775Z,4.80
2018-08-30T00:39:51.774Z,5.00
2018-08-30T00:40:53.186Z,6.10
2018-08-30T00:41:51.782Z,6.00
2018-08-30T00:42:51.772Z,5.80
2018-08-30T00:43:51.771Z,5.80
2018-08-30T00:44:51.770Z,5.70
2018-08-30T00:45:51.786Z,5.60
2018-08-30T00:46:51.770Z,5.30
2018-08-30T00:47:51.767Z,6.20
2018-08-30T00:48:51.769Z,5.90
2018-08-30T00:49:51.767Z,6.10
2018-08-30T00:50:51.766Z,6.10
2018-08-30T00:51:51.765Z,6.30
2018-08-30T00:52:51.766Z,5.90
2018-08-30T00:53:51.765Z,6.40
2018-08-30T00:54:55.801Z,6.90
2018-08-30T00:55:51.762Z,6.20
2018-08-30T00:56:51.763Z,6.70
2018-08-30T00:57:51.761Z,6.40
2018-08-30T00:58:51.761Z,6.20
2018-08-30T00:59:51.760Z,6.30
2018-08-30T01:00:51.760Z,6.40
2018-08-30T01:01:51.761Z,6.70
2018-08-30T01:02:51.761Z,6.80
2018-08-30T01:03:51.758Z,6.50
2018-08-30T01:04:51.757Z,5.70
2018-08-30T01:05:51.757Z,6.80
2018-08-30T01:06:51.756Z,7.10
2018-08-30T01:07:51.757Z,7.10
2018-08-30T01:08:51.757Z,8.50
2018-08-30T01:09:51.754Z,6.90
2018-08-30T01:10:51.754Z,7.40
2018-08-30T01:11:51.753Z,8.40
2018-08-30T01:12:51.751Z,7.60
2018-08-30T01:13:51.752Z,7.00
2018-08-30T01:14:51.750Z,7.80
2018-08-30T01:15:51.750Z,8.00
2018-08-30T01:16:51.751Z,7.60
2018-08-30T01:17:51.752Z,8.20
2018-08-30T01:18:51.751Z,7.80
2018-08-30T01:19:51.748Z,8.50
2018-08-30T01:20:51.746Z,7.30
2018-08-30T01:21:51.748Z,8.00
2018-08-30T01:22:51.745Z,8.90
2018-08-30T01:23:51.748Z,6.90
2018-08-30T01:24:51.748Z,7.80
2018-08-30T01:25:51.750Z,8.20
2018-08-30T01:26:51.741Z,9.20
2018-08-30T01:27:51.743Z,8.40
2018-08-30T01:28:51.743Z,9.00
2018-08-30T01:29:51.741Z,9.50
2018-08-30T01:30:51.740Z,8.30
2018-08-30T01:31:51.740Z,9.20
2018-08-30T01:32:51.739Z,9.00
2018-08-30T01:33:51.740Z,9.50
2018-08-30T01:34:51.738Z,8.60
2018-08-30T01:35:51.739Z,9.10
2018-08-30T01:36:51.738Z,8.40
2018-08-30T01:37:51.737Z,9.00
2018-08-30T01:38:51.735Z,9.60
2018-08-30T01:39:51.736Z,10.30
2018-08-30T01:40:51.734Z,9.40
2018-08-30T01:41:51.744Z,8.50
2018-08-30T01:42:51.732Z,9.30
2018-08-30T01:43:51.733Z,9.10
2018-08-30T01:44:51.734Z,9.80
2018-08-30T01:45:51.730Z,9.00
2018-08-30T01:46:51.731Z,9.60
2018-08-30T01:47:51.736Z,10.00
2018-08-30T01:48:51.731Z,8.80
2018-08-30T01:49:51.730Z,9.40
2018-08-30T01:50:51.729Z,9.80
2018-08-30T01:51:51.728Z,8.40
2018-08-30T01:52:51.728Z,9.10
2018-08-30T01:53:51.727Z,10.00
2018-08-30T01:54:51.725Z,9.70
2018-08-30T01:55:51.726Z,9.50
2018-08-30T01:56:51.727Z,10.60
2018-08-30T01:57:51.724Z,9.30
2018-08-30T01:58:51.724Z,9.50
2018-08-30T01:59:51.723Z,9.80
2018-08-30T02:00:51.724Z,9.20
2018-08-30T02:01:51.721Z,10.20
2018-08-30T02:02:51.724Z,10.20
2018-08-30T02:03:51.720Z,9.70
2018-08-30T02:04:51.722Z,9.20
2018-08-30T02:05:51.718Z,9.40
2018-08-30T02:06:51.718Z,10.00
2018-08-30T02:07:51.718Z,10.70
2018-08-30T02:08:51.717Z,10.20
2018-08-30T02:09:51.716Z,10.00
2018-08-30T02:10:51.716Z,9.70
2018-08-30T02:11:51.715Z,9.30
2018-08-30T02:12:51.716Z,9.10
2018-08-30T02:13:51.713Z,9.10
2018-08-30T02:14:51.713Z,8.90
2018-08-30T02:15:51.712Z,10.20
2018-08-30T02:16:51.711Z,10.60
2018-08-30T02:17:51.712Z,9.60
2018-08-30T02:18:51.710Z,10.00
2018-08-30T02:19:51.709Z,10.80
2018-08-30T02:20:51.708Z,10.70
2018-08-30T02:21:51.707Z,9.20
2018-08-30T02:22:51.705Z,10.20
2018-08-30T02:23:51.706Z,10.30
2018-08-30T02:24:51.707Z,9.10
2018-08-30T02:25:51.715Z,10.10
2018-08-30T02:26:51.704Z,10.30
2018-08-30T02:27:51.704Z,9.60
2018-08-30T02:28:51.703Z,10.10
2018-08-30T02:29:51.701Z,8.70
2018-08-30T02:30:51.700Z,10.70
2018-08-30T02:31:51.700Z,10.40
2018-08-30T02:32:51.703Z,10.00
2018-08-30T02:33:51.701Z,9.50
2018-08-30T02:34:51.697Z,10.20
2018-08-30T02:35:51.698Z,8.70
2018-08-30T02:36:51.696Z,10.80
2018-08-30T02:37:51.694Z,9.50
2018-08-30T02:38:51.694Z,10.40
2018-08-30T02:39:51.742Z,10.50
2018-08-30T02:40:51.694Z,10.00
2018-08-30T02:41:51.691Z,10.30
2018-08-30T02:42:51.692Z,8.60
2018-08-30T02:43:51.690Z,8.80
2018-08-30T02:44:51.690Z,9.30
2018-08-30T02:45:51.687Z,10.10
2018-08-30T02:46:51.688Z,10.30
2018-08-30T02:47:51.687Z,9.40
2018-08-30T02:48:51.704Z,9.30
2018-08-30T02:49:51.684Z,10.10
2018-08-30T02:50:51.683Z,9.40
2018-08-30T02:51:51.687Z,9.00
2018-08-30T02:52:51.683Z,9.40
2018-08-30T02:53:51.682Z,10.00
2018-08-30T02:54:51.681Z,9.10
2018-08-30T02:55:51.681Z,9.30
2018-08-30T02:56:51.680Z,9.20
2018-08-30T02:57:51.677Z,9.40
2018-08-30T02:58:51.681Z,8.90
2018-08-30T02:59:51.676Z,9.30
2018-08-30T03:00:51.677Z,10.60
2018-08-30T03:01:51.675Z,9.30
2018-08-30T03:02:51.673Z,10.10
2018-08-30T03:03:51.673Z,9.60
2018-08-30T03:04:51.673Z,9.50
2018-08-30T03:05:51.671Z,9.90
2018-08-30T03:06:51.671Z,8.30
2018-08-30T03:07:51.675Z,8.70
2018-08-30T03:08:51.670Z,9.70
2018-08-30T03:09:51.667Z,8.70
2018-08-30T03:10:51.668Z,8.90
2018-08-30T03:11:51.664Z,10.00
2018-08-30T03:12:51.665Z,10.50
2018-08-30T03:13:51.664Z,9.40
2018-08-30T03:14:51.663Z,10.50
2018-08-30T03:15:51.667Z,8.70
2018-08-30T03:16:51.662Z,8.10
2018-08-30T03:17:51.660Z,9.40
2018-08-30T03:18:51.660Z,11.00
2018-08-30T03:19:51.661Z,8.30
2018-08-30T03:20:51.658Z,8.70
2018-08-30T03:21:51.658Z,9.30
2018-08-30T03:22:51.657Z,8.90
2018-08-30T03:23:51.658Z,9.70
2018-08-30T03:24:51.656Z,8.50
2018-08-30T03:25:51.655Z,9.40
2018-08-30T03:26:51.653Z,8.80
2018-08-30T03:27:51.654Z,9.40
2018-08-30T03:28:51.652Z,9.10
2018-08-30T03:29:51.651Z,8.80
2018-08-30T03:30:51.703Z,9.50
2018-08-30T03:31:51.651Z,8.50
2018-08-30T03:32:51.650Z,9.00
2018-08-30T03:33:51.648Z,9.70
2018-08-30T03:34:51.648Z,7.60
2018-08-30T03:35:51.672Z,8.40
2018-08-30T03:36:51.646Z,8.80
2018-08-30T03:37:51.645Z,9.40
2018-08-30T03:38:51.646Z,7.20
2018-08-30T03:39:51.645Z,9.40
2018-08-30T03:40:51.648Z,8.30
2018-08-30T03:41:51.643Z,8.60
2018-08-30T03:42:51.641Z,9.80
2018-08-30T03:43:51.641Z,8.60
2018-08-30T03:44:51.640Z,9.00
2018-08-30T03:45:51.639Z,10.00
2018-08-30T03:46:51.662Z,9.40
2018-08-30T03:47:51.639Z,8.10
2018-08-30T03:48:51.638Z,9.70
2018-08-30T03:49:51.636Z,9.50
2018-08-30T03:50:51.637Z,8.10
2018-08-30T03:51:51.635Z,8.90
2018-08-30T03:52:51.638Z,8.80
2018-08-30T03:53:51.635Z,9.00
2018-08-30T03:54:51.632Z,9.50
2018-08-30T03:55:51.634Z,9.50
2018-08-30T03:56:51.633Z,7.90
2018-08-30T03:57:51.630Z,9.30
2018-08-30T03:58:51.629Z,8.40
2018-08-30T03:59:51.629Z,9.70
2018-08-30T04:00:51.629Z,9.10
2018-08-30T04:01:51.628Z,9.90
2018-08-30T04:02:51.627Z,9.10
2018-08-30T04:03:51.626Z,8.30
2018-08-30T04:04:51.627Z,9.40
2018-08-30T04:05:51.623Z,9.10
2018-08-30T04:06:51.623Z,8.80
2018-08-30T04:07:51.623Z,8.60
2018-08-30T04:08:51.622Z,9.80
2018-08-30T04:09:51.630Z,8.90
2018-08-30T04:10:51.621Z,9.70
2018-08-30T04:11:51.620Z,8.40
2018-08-30T04:12:51.620Z,10.30
2018-08-30T04:13:51.623Z,8.90
2018-08-30T04:14:51.618Z,8.40
2018-08-30T04:15:51.617Z,9.50
2018-08-30T04:16:51.617Z,9.70
2018-08-30T04:17:51.615Z,9.60
2018-08-30T04:18:51.615Z,8.60
2018-08-30T04:19:51.614Z,9.10
2018-08-30T04:20:51.614Z,8.50
2018-08-30T04:21:51.652Z,10.10
2018-08-30T04:22:51.616Z,8.70
2018-08-30T04:23:51.611Z,9.70
2018-08-30T04:24:51.611Z,9.60
2018-08-30T04:25:51.609Z,9.30
2018-08-30T04:26:51.608Z,8.90
2018-08-30T04:27:51.609Z,8.70
2018-08-30T04:28:51.608Z,9.50
2018-08-30T04:29:51.606Z,9.50
2018-08-30T04:30:51.607Z,9.30
2018-08-30T04:31:51.606Z,9.30
2018-08-30T04:32:51.606Z,9.60
2018-08-30T04:33:51.605Z,8.90
2018-08-30T04:34:51.611Z,9.40
2018-08-30T04:35:51.603Z,7.60
2018-08-30T04:36:51.602Z,9.20
2018-08-30T04:37:51.600Z,9.10
2018-08-30T04:38:51.602Z,8.80
2018-08-30T04:39:51.601Z,8.40
2018-08-30T04:40:51.599Z,9.40
2018-08-30T04:41:51.603Z,9.10
2018-08-30T04:42:51.630Z,8.70
2018-08-30T04:43:51.597Z,9.50
2018-08-30T04:44:51.598Z,9.60
2018-08-30T04:45:51.595Z,9.80
2018-08-30T04:46:51.595Z,9.00
2018-08-30T04:47:51.595Z,9.00
2018-08-30T04:48:51.596Z,9.10
2018-08-30T04:49:51.591Z,9.20
2018-08-30T04:50:51.591Z,10.60
2018-08-30T04:51:51.590Z,10.50
2018-08-30T04:52:51.589Z,9.20
2018-08-30T04:53:51.590Z,10.40
2018-08-30T04:54:51.588Z,10.60
2018-08-30T04:55:51.588Z,10.80
2018-08-30T04:56:51.590Z,9.60
2018-08-30T04:57:51.586Z,9.70
2018-08-30T04:58:51.587Z,10.00
2018-08-30T04:59:51.585Z,9.80
2018-08-30T05:00:51.584Z,8.70
2018-08-30T05:01:51.713Z,9.60
2018-08-30T05:02:51.582Z,9.10
2018-08-30T05:03:51.591Z,9.60
2018-08-30T05:04:51.580Z,9.60
2018-08-30T05:05:51.579Z,8.40
2018-08-30T05:06:51.583Z,9.70
2018-08-30T05:07:51.578Z,9.40
2018-08-30T05:08:51.578Z,9.20
2018-08-30T05:09:51.637Z,9.10
2018-08-30T05:10:51.578Z,8.80
2018-08-30T05:11:51.575Z,9.80
2018-08-30T05:12:51.576Z,9.00
2018-08-30T05:13:51.574Z,9.20
2018-08-30T05:14:51.572Z,9.10
2018-08-30T05:15:51.572Z,8.50
2018-08-30T05:16:51.577Z,9.20
2018-08-30T05:17:51.570Z,8.10
2018-08-30T05:18:51.572Z,8.20
2018-08-30T05:19:51.571Z,8.70
2018-08-30T05:20:51.569Z,8.00
2018-08-30T05:21:51.567Z,9.30
2018-08-30T05:22:51.568Z,8.00
2018-08-30T05:23:51.567Z,8.10
2018-08-30T05:24:51.567Z,9.30
2018-08-30T05:25:51.564Z,7.90
2018-08-30T05:26:51.564Z,8.50
2018-08-30T05:27:51.566Z,8.80
2018-08-30T05:28:51.564Z,7.50
2018-08-30T05:29:51.622Z,9.40
2018-08-30T05:30:51.561Z,8.00
2018-08-30T05:31:51.562Z,7.40
2018-08-30T05:32:51.562Z,7.30
2018-08-30T05:33:51.565Z,7.40
2018-08-30T05:34:51.558Z,7.90
2018-08-30T05:35:51.595Z,7.80
2018-08-30T05:36:51.559Z,8.20
2018-08-30T05:37:51.560Z,7.70
2018-08-30T05:38:51.556Z,7.40
2018-08-30T05:39:51.555Z,7.40
2018-08-30T05:40:51.553Z,7.60
2018-08-30T05:41:51.554Z,7.10
2018-08-30T05:42:51.554Z,7.70
2018-08-30T05:43:51.552Z,7.50
2018-08-30T05:44:51.553Z,6.00
2018-08-30T05:45:51.556Z,7.20
2018-08-30T05:46:51.550Z,6.90
2018-08-30T05:47:51.552Z,7.00
2018-08-30T05:48:51.550Z,7.20
2018-08-30T05:49:51.552Z,6.50
2018-08-30T05:50:51.548Z,6.50
2018-08-30T05:51:51.548Z,5.80
2018-08-30T05:52:51.548Z,6.70
2018-08-30T05:53:51.546Z,6.70
2018-08-30T05:54:51.545Z,6.10
2018-08-30T05:55:51.545Z,6.20
2018-08-30T05:56:51.590Z,5.70
2018-08-30T05:57:51.549Z,5.00
2018-08-30T05:58:51.543Z,5.00
2018-08-30T05:59:51.540Z,5.10
2018-08-30T06:00:51.542Z,5.80
2018-08-30T06:01:51.540Z,5.70
2018-08-30T06:02:51.541Z,5.80
2018-08-30T06:03:51.539Z,5.50
2018-08-30T06:04:51.540Z,5.80
2018-08-30T06:05:51.535Z,5.60
2018-08-30T06:06:51.535Z,5.30
2018-08-30T06:07:51.536Z,5.20
2018-08-30T06:08:51.534Z,5.60
2018-08-30T06:09:51.533Z,5.20
2018-08-30T06:10:51.536Z,4.80
2018-08-30T06:11:51.565Z,5.40
2018-08-30T06:12:51.533Z,4.40
2018-08-30T06:13:51.532Z,5.70
2018-08-30T06:14:51.529Z,4.80
2018-08-30T06:15:51.531Z,5.30
2018-08-30T06:16:51.531Z,4.60
2018-08-30T06:17:51.530Z,4.30
2018-08-30T06:18:51.528Z,4.60
2018-08-30T06:19:51.526Z,5.20
2018-08-30T06:20:51.526Z,4.80
2018-08-30T06:21:51.525Z,4.60
2018-08-30T06:22:51.524Z,4.00
2018-08-30T06:23:51.524Z,4.50
2018-08-30T06:24:51.524Z,4.40
2018-08-30T06:25:51.524Z,4.90
2018-08-30T06:26:51.529Z,4.80
2018-08-30T06:27:51.522Z,4.50
2018-08-30T06:28:51.519Z,4.00
2018-08-30T06:29:51.519Z,4.00
2018-08-30T06:30:51.519Z,3.70
2018-08-30T06:31:51.520Z,4.90
2018-08-30T06:32:51.529Z,4.20
2018-08-30T06:33:51.518Z,4.00
2018-08-30T06:34:51.531Z,3.70
2018-08-30T06:35:51.517Z,4.00
2018-08-30T06:36:51.518Z,4.80
2018-08-30T06:37:51.516Z,4.00
2018-08-30T06:38:51.562Z,4.10
2018-08-30T06:39:51.515Z,4.50
2018-08-30T06:40:51.514Z,4.30
2018-08-30T06:41:51.513Z,3.50
2018-08-30T06:42:51.514Z,4.30
2018-08-30T06:43:51.512Z,3.90
2018-08-30T06:44:51.512Z,3.40
2018-08-30T06:45:51.511Z,3.30
2018-08-30T06:46:51.512Z,4.10
2018-08-30T06:47:51.511Z,3.90
2018-08-30T06:48:51.545Z,3.80
2018-08-30T06:49:51.511Z,5.20
2018-08-30T06:50:51.510Z,3.90
2018-08-30T06:51:51.510Z,3.80
2018-08-30T06:52:51.510Z,3.70
2018-08-30T06:53:51.512Z,3.70
2018-08-30T06:54:51.508Z,3.30
2018-08-30T06:55:51.509Z,3.20
2018-08-30T06:56:51.510Z,3.00
2018-08-30T06:57:51.512Z,3.70
2018-08-30T06:58:51.508Z,4.00
2018-08-30T06:59:51.508Z,4.20
2018-08-30T07:00:51.509Z,3.60
2018-08-30T07:01:51.509Z,3.30
2018-08-30T07:02:51.511Z,3.70
2018-08-30T07:03:51.508Z,3.30
2018-08-30T07:04:51.508Z,3.30
2018-08-30T07:05:51.507Z,3.60
2018-08-30T07:06:51.508Z,3.50
2018-08-30T07:07:51.507Z,3.10
2018-08-30T07:08:51.508Z,4.10
2018-08-30T07:09:51.507Z,2.80
2018-08-30T07:10:51.507Z,2.90
2018-08-30T07:11:51.508Z,3.30
2018-08-30T07:12:51.515Z,3.30
2018-08-30T07:13:51.509Z,2.90
2018-08-30T07:14:51.537Z,3.50
2018-08-30T07:15:51.512Z,2.70
2018-08-30T07:16:51.514Z,3.30
2018-08-30T07:17:51.510Z,2.80
2018-08-30T07:18:51.511Z,2.40
2018-08-30T07:19:51.515Z,2.50
2018-08-30T07:20:51.511Z,3.20
2018-08-30T07:21:51.509Z,2.70
2018-08-30T07:22:51.511Z,2.70
2018-08-30T07:23:51.511Z,2.60
2018-08-30T07:24:51.511Z,3.30
2018-08-30T07:25:51.511Z,2.80
2018-08-30T07:26:51.510Z,2.30
2018-08-30T07:27:51.512Z,2.10
2018-08-30T07:28:51.512Z,2.20
2018-08-30T07:29:51.513Z,2.60
2018-08-30T07:30:51.514Z,2.70
2018-08-30T07:31:51.515Z,3.10
2018-08-30T07:32:51.516Z,2.70
2018-08-30T07:33:51.515Z,2.80
2018-08-30T07:34:51.553Z,2.20
2018-08-30T07:35:51.517Z,1.80
2018-08-30T07:36:51.522Z,2.40
2018-08-30T07:37:51.518Z,2.10
2018-08-30T07:38:51.521Z,2.70
2018-08-30T07:39:51.520Z,2.50
2018-08-30T07:40:51.522Z,2.80
2018-08-30T07:41:51.522Z,2.50
2018-08-30T07:42:51.523Z,2.00
2018-08-30T07:43:51.526Z,2.00
2018-08-30T07:44:51.525Z,2.90
2018-08-30T07:45:51.525Z,1.90
2018-08-30T07:46:51.529Z,2.10
2018-08-30T07:47:51.530Z,3.30
2018-08-30T07:48:51.531Z,2.60
2018-08-30T07:49:51.531Z,3.00
2018-08-30T07:50:51.556Z,2.10
2018-08-30T07:51:51.532Z,2.00
2018-08-30T07:52:51.534Z,2.10
2018-08-30T07:53:51.535Z,2.40
2018-08-30T07:54:51.540Z,2.70
2018-08-30T07:55:51.539Z,2.40
2018-08-30T07:56:51.540Z,2.30
2018-08-30T07:57:51.538Z,2.80
2018-08-30T07:58:51.545Z,2.30
2018-08-30T07:59:51.624Z,2.90
2018-08-30T08:00:51.544Z,2.30
2018-08-30T08:01:51.545Z,3.00
2018-08-30T08:02:51.546Z,2.60
2018-08-30T08:03:51.547Z,2.70
2018-08-30T08:04:51.549Z,2.30
2018-08-30T08:05:51.565Z,2.20
2018-08-30T08:06:51.552Z,2.50
2018-08-30T08:07:51.552Z,2.60
2018-08-30T08:08:51.556Z,2.00
2018-08-30T08:09:51.558Z,2.70
2018-08-30T08:10:51.558Z,1.90
2018-08-30T08:11:51.570Z,2.20
2018-08-30T08:12:51.669Z,2.30
2018-08-30T08:13:51.562Z,1.70
2018-08-30T08:14:51.571Z,1.70
2018-08-30T08:15:51.568Z,2.10
2018-08-30T08:16:51.568Z,1.60
2018-08-30T08:17:51.569Z,2.10
2018-08-30T08:18:51.570Z,2.00
2018-08-30T08:19:51.573Z,2.20
2018-08-30T08:20:51.574Z,2.00
2018-08-30T08:21:51.576Z,2.50
2018-08-30T08:22:51.579Z,1.60
2018-08-30T08:23:51.581Z,1.90
2018-08-30T08:24:51.587Z,2.10
2018-08-30T08:25:51.584Z,2.00
2018-08-30T08:26:51.585Z,1.90
2018-08-30T08:27:51.588Z,2.10
2018-08-30T08:28:51.590Z,2.60
2018-08-30T08:29:51.591Z,2.40
2018-08-30T08:30:51.594Z,1.20
2018-08-30T08:31:51.595Z,1.70
2018-08-30T08:32:51.599Z,2.30
2018-08-30T08:33:51.602Z,1.30
2018-08-30T08:34:51.607Z,1.60
2018-08-30T08:35:51.608Z,2.10
2018-08-30T08:36:51.614Z,2.10
2018-08-30T08:37:51.615Z,2.20
2018-08-30T08:38:51.619Z,1.70
2018-08-30T08:39:51.625Z,1.70
2018-08-30T08:40:51.631Z,2.00
2018-08-30T08:41:51.634Z,1.90
2018-08-30T08:42:51.640Z,1.80
2018-08-30T08:43:51.647Z,2.00
2018-08-30T08:44:51.652Z,2.30
2018-08-30T08:45:51.657Z,1.70
2018-08-30T08:46:51.668Z,1.50
2018-08-30T08:47:51.749Z,2.00
2018-08-30T08:48:51.678Z,1.50
2018-08-30T08:49:51.684Z,2.00
2018-08-30T08:50:51.692Z,1.80
2018-08-30T08:51:51.703Z,2.50
2018-08-30T08:52:51.708Z,2.10
2018-08-30T08:53:51.780Z,2.20
2018-08-30T08:54:51.721Z,2.30
2018-08-30T08:55:51.729Z,1.90
2018-08-30T08:56:51.736Z,1.70
2018-08-30T08:57:51.742Z,1.90
2018-08-30T08:58:51.877Z,2.20
2018-08-30T08:59:51.757Z,1.80
2018-08-30T09:00:51.764Z,1.80
2018-08-30T09:01:51.771Z,2.30
2018-08-30T09:02:51.777Z,1.90
2018-08-30T09:03:51.785Z,1.80
2018-08-30T09:04:51.791Z,2.30
2018-08-30T09:05:51.809Z,1.80
2018-08-30T09:06:51.861Z,2.30
2018-08-30T09:07:51.859Z,1.90
2018-08-30T09:08:51.815Z,2.10
2018-08-30T09:09:51.821Z,1.60
2018-08-30T09:10:51.827Z,2.00
2018-08-30T09:11:51.833Z,1.60
2018-08-30T09:12:51.839Z,1.60
2018-08-30T09:13:51.845Z,1.50
2018-08-30T09:14:51.852Z,1.60
2018-08-30T09:15:51.860Z,1.60
2018-08-30T09:16:51.863Z,2.10
2018-08-30T09:17:51.868Z,1.90
2018-08-30T09:18:51.874Z,1.90
2018-08-30T09:19:51.880Z,2.10
2018-08-30T09:20:51.884Z,2.20
2018-08-30T09:21:51.892Z,1.90
2018-08-30T09:22:51.896Z,1.90
2018-08-30T09:23:51.900Z,1.70
2018-08-30T09:24:51.907Z,1.70
2018-08-30T09:25:51.912Z,1.60
2018-08-30T09:26:52.028Z,2.20
2018-08-30T09:27:51.928Z,2.00
2018-08-30T09:28:51.930Z,1.90
2018-08-30T09:29:51.934Z,1.80
2018-08-30T09:30:51.969Z,1.70
2018-08-30T09:31:51.947Z,1.40
2018-08-30T09:32:51.953Z,1.80
2018-08-30T09:33:52.016Z,1.60
2018-08-30T09:34:51.963Z,1.60
2018-08-30T09:35:51.968Z,1.60
2018-08-30T09:36:51.975Z,1.90
2018-08-30T09:37:51.980Z,1.50
2018-08-30T09:38:51.984Z,1.80
2018-08-30T09:39:51.991Z,1.90
2018-08-30T09:40:51.998Z,1.80
2018-08-30T09:41:52.002Z,2.00
2018-08-30T09:42:52.008Z,2.00
2018-08-30T09:43:52.035Z,1.70
2018-08-30T09:44:52.020Z,2.50
2018-08-30T09:45:52.026Z,1.60
2018-08-30T09:46:52.030Z,1.90
2018-08-30T09:47:52.036Z,1.80
2018-08-30T09:48:52.042Z,1.70
2018-08-30T09:49:52.075Z,1.90
2018-08-30T09:50:52.055Z,2.00
2018-08-30T09:51:52.061Z,1.70
2018-08-30T09:52:52.066Z,1.60
2018-08-30T09:53:52.070Z,1.20
2018-08-30T09:54:52.076Z,2.00
2018-08-30T09:55:52.084Z,1.80
2018-08-30T09:56:52.192Z,1.80
2018-08-30T09:57:52.096Z,1.60
2018-08-30T09:58:52.103Z,1.50
2018-08-30T09:59:52.110Z,1.70
2018-08-30T10:00:52.117Z,1.50
2018-08-30T10:01:52.123Z,1.30
2018-08-30T10:02:52.132Z,2.00
2018-08-30T10:03:52.157Z,1.60
2018-08-30T10:04:52.147Z,1.60
2018-08-30T10:05:52.156Z,1.40
2018-08-30T10:06:52.164Z,1.30
2018-08-30T10:07:52.172Z,1.50
2018-08-30T10:08:52.182Z,1.60
2018-08-30T10:09:52.189Z,1.40
2018-08-30T10:10:52.196Z,2.30
2018-08-30T10:11:52.206Z,1.60
2018-08-30T10:12:52.215Z,1.70
2018-08-30T10:13:52.222Z,1.60
2018-08-30T10:14:52.232Z,1.60
2018-08-30T10:15:52.295Z,1.40
2018-08-30T10:16:52.249Z,1.70
2018-08-30T10:17:52.255Z,1.90
2018-08-30T10:18:52.264Z,2.20
2018-08-30T10:19:52.275Z,1.40
2018-08-30T10:20:52.279Z,1.90
2018-08-30T10:21:52.286Z,1.60
2018-08-30T10:22:52.295Z,1.70
2018-08-30T10:23:52.302Z,1.80
2018-08-30T10:24:52.310Z,1.60
2018-08-30T10:25:52.364Z,1.90
2018-08-30T10:26:52.322Z,1.90
2018-08-30T10:27:52.330Z,1.90
2018-08-30T10:28:52.338Z,1.70
2018-08-30T10:29:52.349Z,1.30
2018-08-30T10:30:52.351Z,1.60
2018-08-30T10:31:52.358Z,1.30
2018-08-30T10:32:52.366Z,1.70
2018-08-30T10:33:52.371Z,1.60
2018-08-30T10:34:52.378Z,1.90
2018-08-30T10:35:52.383Z,1.10
2018-08-30T10:36:52.436Z,1.20
2018-08-30T10:37:52.395Z,1.60
2018-08-30T10:38:52.403Z,1.50
2018-08-30T10:39:52.408Z,1.90
2018-08-30T10:40:52.414Z,1.40
2018-08-30T10:41:52.419Z,1.60
2018-08-30T10:42:52.488Z,2.20
2018-08-30T10:43:52.430Z,1.40
2018-08-30T10:44:52.437Z,1.80
2018-08-30T10:45:52.441Z,1.40
2018-08-30T10:46:52.448Z,1.70
2018-08-30T10:47:52.453Z,1.90
2018-08-30T10:48:52.460Z,1.50
2018-08-30T10:49:52.510Z,1.40
2018-08-30T10:50:52.471Z,1.60
2018-08-30T10:51:52.476Z,1.10
2018-08-30T10:52:52.483Z,1.90
2018-08-30T10:53:52.487Z,1.70
2018-08-30T10:54:52.494Z,1.70
2018-08-30T10:55:52.500Z,1.50
2018-08-30T10:56:52.510Z,1.50
2018-08-30T10:57:52.513Z,1.40
2018-08-30T10:58:52.516Z,1.50
2018-08-30T10:59:52.526Z,1.60
2018-08-30T11:00:52.528Z,1.30
2018-08-30T11:01:52.565Z,1.30
2018-08-30T11:02:52.538Z,1.70
2018-08-30T11:03:52.610Z,1.60
2018-08-30T11:04:52.550Z,1.50
2018-08-30T11:05:52.555Z,2.20
2018-08-30T11:06:52.588Z,1.60
2018-08-30T11:07:52.606Z,1.50
2018-08-30T11:08:52.573Z,1.80
2018-08-30T11:09:52.579Z,1.50
2018-08-30T11:10:52.585Z,1.50
2018-08-30T11:11:52.585Z,1.60
2018-08-30T11:12:52.611Z,1.40
2018-08-30T11:13:52.596Z,1.40
2018-08-30T11:14:52.598Z,1.50
2018-08-30T11:15:52.606Z,1.30
2018-08-30T11:16:52.614Z,1.60
2018-08-30T11:17:52.613Z,1.10
2018-08-30T11:18:52.621Z,1.30
2018-08-30T11:19:52.624Z,1.00
2018-08-30T11:20:52.629Z,1.50
2018-08-30T11:21:52.634Z,1.10
2018-08-30T11:22:52.638Z,1.50
2018-08-30T11:23:52.643Z,1.50
2018-08-30T11:24:52.647Z,1.20
2018-08-30T11:25:52.652Z,1.50
2018-08-30T11:26:52.655Z,1.50
2018-08-30T11:27:52.659Z,1.10
2018-08-30T11:28:52.664Z,1.50
2018-08-30T11:29:52.668Z,1.10
2018-08-30T11:30:52.675Z,1.30
2018-08-30T11:31:52.677Z,1.20
2018-08-30T11:32:52.681Z,1.50
2018-08-30T11:33:52.684Z,1.90
2018-08-30T11:34:52.688Z,1.40
2018-08-30T11:35:52.694Z,1.40
2018-08-30T11:36:52.698Z,1.30
2018-08-30T11:37:52.702Z,1.40
2018-08-30T11:38:52.706Z,1.10
2018-08-30T11:39:52.712Z,1.30
2018-08-30T11:40:52.712Z,1.60
2018-08-30T11:41:52.801Z,1.60
2018-08-30T11:42:52.721Z,1.10
2018-08-30T11:43:52.725Z,1.60
2018-08-30T11:44:52.731Z,1.40
2018-08-30T11:45:52.732Z,1.40
2018-08-30T11:46:52.739Z,0.80
2018-08-30T11:47:52.743Z,0.90
2018-08-30T11:48:52.747Z,2.10
2018-08-30T11:49:52.753Z,1.40
2018-08-30T11:50:52.755Z,1.90
2018-08-30T11:51:52.759Z,1.00
2018-08-30T11:52:52.764Z,1.00
2018-08-30T11:53:52.766Z,1.20
2018-08-30T11:54:52.771Z,1.20
2018-08-30T11:55:52.776Z,1.30
2018-08-30T11:56:52.781Z,1.60
2018-08-30T11:57:52.784Z,1.20
2018-08-30T11:58:52.789Z,1.10
2018-08-30T11:59:52.793Z,1.20
2018-08-30T12:00:52.856Z,2.00
2018-08-30T12:01:52.802Z,1.20
2018-08-30T12:02:52.805Z,1.10
2018-08-30T12:03:52.810Z,1.70
2018-08-30T12:04:52.813Z,1.30
2018-08-30T12:05:52.816Z,1.50
2018-08-30T12:06:52.828Z,1.00
2018-08-30T12:07:52.834Z,1.40
2018-08-30T12:08:52.829Z,1.20
2018-08-30T12:09:52.835Z,0.80
2018-08-30T12:10:52.978Z,1.00
2018-08-30T12:11:52.843Z,1.40
2018-08-30T12:12:52.846Z,1.10
2018-08-30T12:13:52.850Z,0.90
2018-08-30T12:14:52.855Z,1.20
2018-08-30T12:15:52.860Z,1.30
2018-08-30T12:16:52.864Z,0.90
2018-08-30T12:17:52.870Z,1.40
2018-08-30T12:18:52.913Z,1.40
2018-08-30T12:19:52.874Z,1.50
2018-08-30T12:20:52.944Z,1.20
2018-08-30T12:21:52.883Z,1.10
2018-08-30T12:22:52.887Z,1.20
2018-08-30T12:23:52.892Z,0.80
2018-08-30T12:24:52.895Z,1.30
2018-08-30T12:25:52.900Z,1.10
2018-08-30T12:26:52.904Z,0.60
2018-08-30T12:27:52.909Z,0.90
2018-08-30T12:28:52.932Z,0.90
2018-08-30T12:29:52.916Z,1.20
2018-08-30T12:30:52.930Z,1.10
2018-08-30T12:31:52.938Z,1.60
2018-08-30T12:32:52.956Z,1.10
2018-08-30T12:33:53.015Z,1.50
2018-08-30T12:34:52.998Z,1.20
2018-08-30T12:35:53.077Z,0.90
2018-08-30T12:36:52.947Z,1.40
2018-08-30T12:37:52.949Z,1.10
2018-08-30T12:38:53.005Z,1.00
2018-08-30T12:39:53.047Z,1.10
2018-08-30T12:40:53.012Z,1.60
2018-08-30T12:41:53.049Z,1.40
2018-08-30T12:42:53.091Z,1.30
2018-08-30T12:43:53.063Z,1.00
2018-08-30T12:44:52.984Z,1.20
2018-08-30T12:45:52.997Z,1.10
2018-08-30T12:46:53.006Z,0.90
2018-08-30T12:47:53.025Z,1.40
2018-08-30T12:48:52.994Z,1.10
2018-08-30T12:49:53.054Z,1.10
2018-08-30T12:50:53.083Z,1.00
2018-08-30T12:51:53.082Z,1.10
2018-08-30T12:52:53.119Z,1.00
2018-08-30T12:53:53.127Z,1.40
2018-08-30T12:54:53.108Z,1.20
2018-08-30T12:55:53.119Z,1.40
2018-08-30T12:56:53.132Z,1.00
2018-08-30T12:57:53.174Z,1.70
2018-08-30T12:58:53.162Z,1.10
2018-08-30T12:59:53.089Z,1.10
2018-08-30T13:00:53.205Z,1.10
2018-08-30T13:01:53.171Z,1.10
2018-08-30T13:02:53.208Z,1.10
2018-08-30T13:03:53.078Z,1.00
2018-08-30T13:04:53.308Z,1.40
2018-08-30T13:05:53.305Z,0.90
2018-08-30T13:06:53.203Z,1.20
2018-08-30T13:07:53.213Z,0.80
2018-08-30T13:08:53.288Z,1.30
2018-08-30T13:09:53.264Z,1.00
2018-08-30T13:10:53.279Z,1.40
2018-08-30T13:11:53.371Z,1.00
2018-08-30T13:12:53.254Z,1.30
2018-08-30T13:13:53.228Z,1.40
2018-08-30T13:14:53.360Z,1.00
2018-08-30T13:15:53.285Z,1.00
2018-08-30T13:16:53.341Z,1.10